sensor_id;sensor_type;location;lat;lon;timestamp;pressure;altitude;pressure_sealevel;temperature;humidity
62980;BME280;49075;53.988;27.678;2022-12-10T00:00:05;981.6;;;-2.2;79.1
62980;BME280;49075;53.988;27.678;2022-12-10T00:04:40;981.5;;;-2.2;79
62980;BME280;49075;53.988;27.678;2022-12-10T00:25:02;981.4;;;-2.4;79.1
62980;BME280;49075;53.988;27.678;2022-12-10T00:29:40;981.4;;;-2.3;79.1
62980;BME280;49075;53.988;27.678;2022-12-10T00:35:05;981.4;;;-2.4;78.9
62980;BME280;49075;53.988;27.678;2022-12-10T00:39:52;981.4;;;-2.3;78.9
62980;BME280;49075;53.988;27.678;2022-12-10T00:44:52;981.3;;;-2.3;78.8
62980;BME280;49075;53.988;27.678;2022-12-10T00:49:24;981.2;;;-2.3;78.8
62980;BME280;49075;53.988;27.678;2022-12-10T00:54:56;981.3;;;-2.4;78.6
62980;BME280;49075;53.988;27.678;2022-12-10T01:00:05;981.3;;;-2.5;79
62980;BME280;49075;53.988;27.678;2022-12-10T01:04:40;981.2;;;-2.5;78.9
62980;BME280;49075;53.988;27.678;2022-12-10T01:09:34;981.1;;;-2.4;78.8
62980;BME280;49075;53.988;27.678;2022-12-10T01:14:44;981.1;;;-2.5;78.7
62980;BME280;49075;53.988;27.678;2022-12-10T01:19:24;981;;;-2.6;79
62980;BME280;49075;53.988;27.678;2022-12-10T01:25:08;981;;;-2.8;79.2
62980;BME280;49075;53.988;27.678;2022-12-10T01:29:36;980.9;;;-2.8;79.3
62980;BME280;49075;53.988;27.678;2022-12-10T01:34:56;980.9;;;-2.9;79.6
62980;BME280;49075;53.988;27.678;2022-12-10T01:39:56;980.9;;;-2.8;79.6
62980;BME280;49075;53.988;27.678;2022-12-10T01:44:58;980.8;;;-2.8;79.4
62980;BME280;49075;53.988;27.678;2022-12-10T01:49:37;980.7;;;-2.9;79.6
62980;BME280;49075;53.988;27.678;2022-12-10T01:54:58;980.7;;;-2.8;79.5
62980;BME280;49075;53.988;27.678;2022-12-10T02:00:07;980.7;;;-2.8;79.4
62980;BME280;49075;53.988;27.678;2022-12-10T02:05:15;980.7;;;-2.9;79.5
62980;BME280;49075;53.988;27.678;2022-12-10T02:09:25;980.6;;;-2.9;79.4
62980;BME280;49075;53.988;27.678;2022-12-10T02:14:50;980.6;;;-2.9;79.6
62980;BME280;49075;53.988;27.678;2022-12-10T02:19:56;980.6;;;-3;79.5
62980;BME280;49075;53.988;27.678;2022-12-10T02:25:08;980.5;;;-3;79.4
62980;BME280;49075;53.988;27.678;2022-12-10T02:29:36;980.4;;;-3;79.4
62980;BME280;49075;53.988;27.678;2022-12-10T02:35:09;980.4;;;-3;79.5
62980;BME280;49075;53.988;27.678;2022-12-10T02:40:02;980.3;;;-3.1;79.6
62980;BME280;49075;53.988;27.678;2022-12-10T02:44:56;980.2;;;-3.1;79.6
62980;BME280;49075;53.988;27.678;2022-12-10T02:49:44;980.2;;;-3.2;79.7
62980;BME280;49075;53.988;27.678;2022-12-10T02:55:10;980.2;;;-3.3;79.9
62980;BME280;49075;53.988;27.678;2022-12-10T02:59:54;980.1;;;-3.4;80.1
62980;BME280;49075;53.988;27.678;2022-12-10T03:04:46;980.1;;;-3.4;80.1
62980;BME280;49075;53.988;27.678;2022-12-10T03:09:37;980.1;;;-3.5;80.5
62980;BME280;49075;53.988;27.678;2022-12-10T03:14:46;980.1;;;-3.5;80.4
62980;BME280;49075;53.988;27.678;2022-12-10T03:20:07;980.1;;;-3.6;80.6
62980;BME280;49075;53.988;27.678;2022-12-10T03:24:56;980.1;;;-3.6;80.5
62980;BME280;49075;53.988;27.678;2022-12-10T03:29:47;980;;;-3.6;80.7
62980;BME280;49075;53.988;27.678;2022-12-10T03:34:57;980;;;-3.6;80.6
62980;BME280;49075;53.988;27.678;2022-12-10T03:39:58;979.9;;;-3.7;80.7
62980;BME280;49075;53.988;27.678;2022-12-10T03:44:56;979.9;;;-3.6;80.3
62980;BME280;49075;53.988;27.678;2022-12-10T03:49:36;979.9;;;-3.7;80.4
62980;BME280;49075;53.988;27.678;2022-12-10T03:55:07;979.8;;;-3.6;80.3
62980;BME280;49075;53.988;27.678;2022-12-10T03:59:46;979.8;;;-3.7;80.4
62980;BME280;49075;53.988;27.678;2022-12-10T04:04:44;979.8;;;-3.7;80.3
62980;BME280;49075;53.988;27.678;2022-12-10T04:10:08;979.8;;;-3.8;80.4
62980;BME280;49075;53.988;27.678;2022-12-10T04:14:44;979.8;;;-3.7;80.4
62980;BME280;49075;53.988;27.678;2022-12-10T04:20:09;979.8;;;-3.8;80.4
62980;BME280;49075;53.988;27.678;2022-12-10T04:24:58;979.8;;;-3.7;80
62980;BME280;49075;53.988;27.678;2022-12-10T04:29:33;979.8;;;-3.7;79.8
62980;BME280;49075;53.988;27.678;2022-12-10T04:34:55;979.7;;;-3.7;80.2
62980;BME280;49075;53.988;27.678;2022-12-10T04:39:58;979.7;;;-3.8;80.3
62980;BME280;49075;53.988;27.678;2022-12-10T04:44:56;979.7;;;-3.7;79.9
62980;BME280;49075;53.988;27.678;2022-12-10T04:49:33;979.7;;;-3.7;79.8
62980;BME280;49075;53.988;27.678;2022-12-10T04:55:07;979.7;;;-3.7;80
62980;BME280;49075;53.988;27.678;2022-12-10T04:59:48;979.7;;;-3.7;80
62980;BME280;49075;53.988;27.678;2022-12-10T05:04:45;979.7;;;-3.8;80.1
62980;BME280;49075;53.988;27.678;2022-12-10T05:09:25;979.6;;;-3.9;80.3
62980;BME280;49075;53.988;27.678;2022-12-10T05:14:47;979.6;;;-4;80.7
62980;BME280;49075;53.988;27.678;2022-12-10T05:19:56;979.5;;;-4;80.7
62980;BME280;49075;53.988;27.678;2022-12-10T05:24:58;979.4;;;-4;80.8
62980;BME280;49075;53.988;27.678;2022-12-10T05:29:25;979.4;;;-3.9;80.6
62980;BME280;49075;53.988;27.678;2022-12-10T05:34:57;979.4;;;-4;80.8
62980;BME280;49075;53.988;27.678;2022-12-10T05:39:58;979.3;;;-4.1;81
62980;BME280;49075;53.988;27.678;2022-12-10T05:44:56;979.4;;;-4.2;81.4
62980;BME280;49075;53.988;27.678;2022-12-10T05:49:44;979.4;;;-4.1;81.2
62980;BME280;49075;53.988;27.678;2022-12-10T05:55:09;979.4;;;-4.1;81.2
62980;BME280;49075;53.988;27.678;2022-12-10T05:59:25;979.3;;;-4.1;81.2
62980;BME280;49075;53.988;27.678;2022-12-10T06:04:24;979.4;;;-4.2;81.4
62980;BME280;49075;53.988;27.678;2022-12-10T06:09:37;979.4;;;-4.2;81.3
62980;BME280;49075;53.988;27.678;2022-12-10T06:14:46;979.4;;;-4.2;81.3
62980;BME280;49075;53.988;27.678;2022-12-10T06:20:07;979.3;;;-4.2;81.3
62980;BME280;49075;53.988;27.678;2022-12-10T06:24:59;979.3;;;-4.2;81.2
62980;BME280;49075;53.988;27.678;2022-12-10T06:30:09;979.3;;;-4.1;81.2
62980;BME280;49075;53.988;27.678;2022-12-10T06:34:57;979.2;;;-4.1;81
62980;BME280;49075;53.988;27.678;2022-12-10T06:39:35;979.1;;;-4;80.8
62980;BME280;49075;53.988;27.678;2022-12-10T06:44:59;979.1;;;-4;80.6
62980;BME280;49075;53.988;27.678;2022-12-10T06:49:39;979.1;;;-4;80.6
62980;BME280;49075;53.988;27.678;2022-12-10T06:55:11;979;;;-4;80.4
62980;BME280;49075;53.988;27.678;2022-12-10T06:59:57;979;;;-4;80.4
62980;BME280;49075;53.988;27.678;2022-12-10T07:04:59;979;;;-4.1;80.5
62980;BME280;49075;53.988;27.678;2022-12-10T07:09:57;978.9;;;-4;80.2
62980;BME280;49075;53.988;27.678;2022-12-10T07:14:37;978.9;;;-4;80.2
62980;BME280;49075;53.988;27.678;2022-12-10T07:20:11;978.9;;;-3.9;79.8
62980;BME280;49075;53.988;27.678;2022-12-10T07:24:47;978.9;;;-3.9;79.8
62980;BME280;49075;53.988;27.678;2022-12-10T07:29:37;978.8;;;-3.7;79.4
62980;BME280;49075;53.988;27.678;2022-12-10T07:35:11;978.8;;;-3.9;79.5
62980;BME280;49075;53.988;27.678;2022-12-10T07:39:25;978.8;;;-3.9;79.5
62980;BME280;49075;53.988;27.678;2022-12-10T07:45:11;978.8;;;-3.9;79.6
62980;BME280;49075;53.988;27.678;2022-12-10T07:49:59;978.8;;;-3.9;79.6
62980;BME280;49075;53.988;27.678;2022-12-10T07:54:25;978.8;;;-3.8;79.4
62980;BME280;49075;53.988;27.678;2022-12-10T07:59:57;978.8;;;-3.9;79.7
62980;BME280;49075;53.988;27.678;2022-12-10T08:04:49;978.8;;;-3.9;79.6
62980;BME280;49075;53.988;27.678;2022-12-10T08:09:53;978.7;;;-3.8;79.5
62980;BME280;49075;53.988;27.678;2022-12-10T08:14:33;978.6;;;-3.8;79.4
62980;BME280;49075;53.988;27.678;2022-12-10T08:20:11;978.5;;;-3.7;79.2
62980;BME280;49075;53.988;27.678;2022-12-10T08:24:49;978.5;;;-3.7;79.2
62980;BME280;49075;53.988;27.678;2022-12-10T08:29:45;978.5;;;-3.7;79
62980;BME280;49075;53.988;27.678;2022-12-10T08:34:35;978.5;;;-3.7;79.1
62980;BME280;49075;53.988;27.678;2022-12-10T08:39:43;978.4;;;-3.7;79
62980;BME280;49075;53.988;27.678;2022-12-10T08:45:07;978.3;;;-3.7;78.9
62980;BME280;49075;53.988;27.678;2022-12-10T08:50:01;978.3;;;-3.6;78.6
62980;BME280;49075;53.988;27.678;2022-12-10T08:54:39;978.3;;;-3.5;78.7
62980;BME280;49075;53.988;27.678;2022-12-10T08:59:55;978.2;;;-3.4;78.4
62980;BME280;49075;53.988;27.678;2022-12-10T09:04:39;978.2;;;-3.4;78.2
62980;BME280;49075;53.988;27.678;2022-12-10T09:09:59;978.2;;;-3.2;77.8
62980;BME280;49075;53.988;27.678;2022-12-10T09:14:25;978.2;;;-3;77.6
62980;BME280;49075;53.988;27.678;2022-12-10T09:20:11;978.1;;;-2.6;76.9
62980;BME280;49075;53.988;27.678;2022-12-10T09:24:37;978.1;;;-2.6;76.9
62980;BME280;49075;53.988;27.678;2022-12-10T09:29:25;978.1;;;-2.7;76
62980;BME280;49075;53.988;27.678;2022-12-10T09:34:49;978.1;;;-2.8;76.7
62980;BME280;49075;53.988;27.678;2022-12-10T09:39:35;978.1;;;-2.9;76.6
62980;BME280;49075;53.988;27.678;2022-12-10T09:45:09;978.1;;;-2.8;76.7
62980;BME280;49075;53.988;27.678;2022-12-10T09:49:57;978;;;-3;76.8
62980;BME280;49075;53.988;27.678;2022-12-10T09:54:33;978;;;-3;77
62980;BME280;49075;53.988;27.678;2022-12-10T09:59:47;977.9;;;-2.9;76.6
62980;BME280;49075;53.988;27.678;2022-12-10T10:05:00;977.9;;;-2.7;76.7
62980;BME280;49075;53.988;27.678;2022-12-10T10:09:58;977.8;;;-2.6;75.9
62980;BME280;49075;53.988;27.678;2022-12-10T10:15:10;977.6;;;-2.2;75.7
62980;BME280;49075;53.988;27.678;2022-12-10T10:20:07;977.6;;;-2.2;74.9
62980;BME280;49075;53.988;27.678;2022-12-10T10:24:47;977.6;;;-2.1;75.3
62980;BME280;49075;53.988;27.678;2022-12-10T10:29:43;977.6;;;-2.4;75
62980;BME280;49075;53.988;27.678;2022-12-10T10:34:25;977.6;;;-2.5;75.3
62980;BME280;49075;53.988;27.678;2022-12-10T10:39:48;977.6;;;-2.5;75.7
62980;BME280;49075;53.988;27.678;2022-12-10T10:49:59;977.5;;;-2.7;75.7
62980;BME280;49075;53.988;27.678;2022-12-10T10:54:39;977.5;;;-2.7;75.8
62980;BME280;49075;53.988;27.678;2022-12-10T11:00:00;977.5;;;-2.8;76.1
62980;BME280;49075;53.988;27.678;2022-12-10T11:05:04;977.4;;;-2.9;76.4
62980;BME280;49075;53.988;27.678;2022-12-10T11:10:15;977.3;;;-2.8;76.2
62980;BME280;49075;53.988;27.678;2022-12-10T11:14:26;977.2;;;-2.8;76.5
62980;BME280;49075;53.988;27.678;2022-12-10T11:20:15;977.2;;;-2.8;76.4
62980;BME280;49075;53.988;27.678;2022-12-10T11:24:47;977.2;;;-2.7;76.3
62980;BME280;49075;53.988;27.678;2022-12-10T11:30:09;977.2;;;-2.7;76.2
62980;BME280;49075;53.988;27.678;2022-12-10T11:34:39;977.1;;;-2.8;76.6
62980;BME280;49075;53.988;27.678;2022-12-10T11:39:54;977.1;;;-3;76.8
62980;BME280;49075;53.988;27.678;2022-12-10T11:45:00;977;;;-3;77
62980;BME280;49075;53.988;27.678;2022-12-10T11:50:11;977.1;;;-3;77
62980;BME280;49075;53.988;27.678;2022-12-10T11:54:29;977.1;;;-3.1;77.3
62980;BME280;49075;53.988;27.678;2022-12-10T12:00:14;977.1;;;-3;77
62980;BME280;49075;53.988;27.678;2022-12-10T12:05:14;977.1;;;-3;77
62980;BME280;49075;53.988;27.678;2022-12-10T12:09:28;977.1;;;-2.8;76.8
62980;BME280;49075;53.988;27.678;2022-12-10T12:14:46;977.1;;;-2.8;76.9
62980;BME280;49075;53.988;27.678;2022-12-10T12:20:13;976.8;;;-2.6;76.4
62980;BME280;49075;53.988;27.678;2022-12-10T12:24:47;976.8;;;-2.6;76.4
62980;BME280;49075;53.988;27.678;2022-12-10T12:30:12;976.8;;;-2.3;75.9
62980;BME280;49075;53.988;27.678;2022-12-10T12:34:37;976.8;;;-2.3;75.9
62980;BME280;49075;53.988;27.678;2022-12-10T12:39:46;976.8;;;-2.4;76.1
62980;BME280;49075;53.988;27.678;2022-12-10T12:45:01;976.9;;;-2.5;76.1
62980;BME280;49075;53.988;27.678;2022-12-10T12:50:11;976.9;;;-2.6;76.5
62980;BME280;49075;53.988;27.678;2022-12-10T12:55:02;976.9;;;-2.6;76.5
62980;BME280;49075;53.988;27.678;2022-12-10T13:00:10;976.9;;;-2.7;76.6
62980;BME280;49075;53.988;27.678;2022-12-10T13:04:57;976.9;;;-2.7;76.6
62980;BME280;49075;53.988;27.678;2022-12-10T13:09:26;976.9;;;-2.7;76.7
62980;BME280;49075;53.988;27.678;2022-12-10T13:14:29;976.9;;;-2.7;76.6
62980;BME280;49075;53.988;27.678;2022-12-10T13:20:28;977;;;-2.7;76.7
62980;BME280;49075;53.988;27.678;2022-12-10T13:30:26;977;;;-2.7;76.8
62980;BME280;49075;53.988;27.678;2022-12-10T13:34:31;977;;;-2.7;76.8
62980;BME280;49075;53.988;27.678;2022-12-10T13:39:46;977;;;-2.7;76.8
62980;BME280;49075;53.988;27.678;2022-12-10T13:44:59;976.9;;;-2.8;77
62980;BME280;49075;53.988;27.678;2022-12-10T13:50:14;976.9;;;-2.7;76.9
62980;BME280;49075;53.988;27.678;2022-12-10T13:54:43;976.9;;;-2.7;76.9
62980;BME280;49075;53.988;27.678;2022-12-10T14:00:09;977;;;-2.8;77.3
62980;BME280;49075;53.988;27.678;2022-12-10T14:05:04;977;;;-2.8;77.3
62980;BME280;49075;53.988;27.678;2022-12-10T14:09:25;977;;;-2.9;77.3
62980;BME280;49075;53.988;27.678;2022-12-10T14:15:14;976.9;;;-3;77.5
62980;BME280;49075;53.988;27.678;2022-12-10T14:20:13;977;;;-3;77.8
62980;BME280;49075;53.988;27.678;2022-12-10T14:24:35;977;;;-3;77.8
62980;BME280;49075;53.988;27.678;2022-12-10T14:29:58;977;;;-3;77.9
62980;BME280;49075;53.988;27.678;2022-12-10T14:34:48;977;;;-3;77.8
62980;BME280;49075;53.988;27.678;2022-12-10T14:39:45;977;;;-3;77.9
62980;BME280;49075;53.988;27.678;2022-12-10T14:44:58;977.1;;;-3;77.8
62980;BME280;49075;53.988;27.678;2022-12-10T14:50:09;977.1;;;-3;78
62980;BME280;49075;53.988;27.678;2022-12-10T14:55:11;977.1;;;-3;77.8
62980;BME280;49075;53.988;27.678;2022-12-10T15:00:09;977.1;;;-3;77.9
62980;BME280;49075;53.988;27.678;2022-12-10T15:04:59;977.1;;;-2.9;77.9
62980;BME280;49075;53.988;27.678;2022-12-10T15:10:08;977.1;;;-2.9;77.9
62980;BME280;49075;53.988;27.678;2022-12-10T15:14:25;977.1;;;-2.9;77.9
62980;BME280;49075;53.988;27.678;2022-12-10T15:20:23;977.1;;;-2.9;77.8
62980;BME280;49075;53.988;27.678;2022-12-10T15:24:36;977.2;;;-3;78
62980;BME280;49075;53.988;27.678;2022-12-10T15:30:20;977.3;;;-3;78.1
62980;BME280;49075;53.988;27.678;2022-12-10T15:34:37;977.3;;;-3.1;78.2
62980;BME280;49075;53.988;27.678;2022-12-10T15:39:46;977.4;;;-3.1;78.3
62980;BME280;49075;53.988;27.678;2022-12-10T15:44:58;977.4;;;-3.1;78.2
62980;BME280;49075;53.988;27.678;2022-12-10T15:49:53;977.4;;;-3.1;78.2
62980;BME280;49075;53.988;27.678;2022-12-10T15:54:36;977.4;;;-3.1;78.1
62980;BME280;49075;53.988;27.678;2022-12-10T16:00:08;977.4;;;-3.1;78.3
62980;BME280;49075;53.988;27.678;2022-12-10T16:04:47;977.4;;;-3.1;78.2
62980;BME280;49075;53.988;27.678;2022-12-10T16:09:35;977.5;;;-3.2;78.3
62980;BME280;49075;53.988;27.678;2022-12-10T16:15:07;977.5;;;-3.2;78.3
62980;BME280;49075;53.988;27.678;2022-12-10T16:20:12;977.3;;;-3.1;78.1
62980;BME280;49075;53.988;27.678;2022-12-10T16:24:47;977.4;;;-3.1;78.1
62980;BME280;49075;53.988;27.678;2022-12-10T16:30:10;977.4;;;-3.1;78.1
62980;BME280;49075;53.988;27.678;2022-12-10T16:34:25;977.3;;;-3.2;78.2
62980;BME280;49075;53.988;27.678;2022-12-10T16:39:43;977.3;;;-3.2;78.4
62980;BME280;49075;53.988;27.678;2022-12-10T16:44:55;977.2;;;-3.3;78.3
62980;BME280;49075;53.988;27.678;2022-12-10T16:49:53;977.2;;;-3.3;78.4
62980;BME280;49075;53.988;27.678;2022-12-10T16:54:25;977.2;;;-3.4;78.6
62980;BME280;49075;53.988;27.678;2022-12-10T17:00:07;977.3;;;-3.4;78.5
62980;BME280;49075;53.988;27.678;2022-12-10T17:04:59;977.3;;;-3.3;78.4
62980;BME280;49075;53.988;27.678;2022-12-10T17:09:43;977.3;;;-3.3;78.4
62980;BME280;49075;53.988;27.678;2022-12-10T17:14:25;977.3;;;-3.3;78.4
62980;BME280;49075;53.988;27.678;2022-12-10T17:20:10;977.4;;;-3.3;78.3
62980;BME280;49075;53.988;27.678;2022-12-10T17:24:45;977.4;;;-3.2;78.3
62980;BME280;49075;53.988;27.678;2022-12-10T17:30:10;977.4;;;-3.3;78.5
62980;BME280;49075;53.988;27.678;2022-12-10T17:34:25;977.4;;;-3.3;78.4
62980;BME280;49075;53.988;27.678;2022-12-10T17:39:47;977.4;;;-3.4;78.5
62980;BME280;49075;53.988;27.678;2022-12-10T17:44:55;977.3;;;-3.4;78.7
62980;BME280;49075;53.988;27.678;2022-12-10T17:50:12;977.4;;;-3.4;78.6
62980;BME280;49075;53.988;27.678;2022-12-10T17:54:35;977.5;;;-3.5;78.8
62980;BME280;49075;53.988;27.678;2022-12-10T18:00:09;977.5;;;-3.4;78.8
62980;BME280;49075;53.988;27.678;2022-12-10T18:04:57;977.5;;;-3.4;78.8
62980;BME280;49075;53.988;27.678;2022-12-10T18:09:41;977.6;;;-3.4;78.7
62980;BME280;49075;53.988;27.678;2022-12-10T18:14:25;977.6;;;-3.4;78.6
62980;BME280;49075;53.988;27.678;2022-12-10T18:20:03;977.5;;;-3.3;78.5
62980;BME280;49075;53.988;27.678;2022-12-10T18:24:45;977.5;;;-3.4;78.6
62980;BME280;49075;53.988;27.678;2022-12-10T18:30:05;977.5;;;-3.4;78.6
62980;BME280;49075;53.988;27.678;2022-12-10T18:34:25;977.5;;;-3.4;78.7
62980;BME280;49075;53.988;27.678;2022-12-10T18:39:26;977.4;;;-3.4;78.8
62980;BME280;49075;53.988;27.678;2022-12-10T18:44:53;977.4;;;-3.4;78.7
62980;BME280;49075;53.988;27.678;2022-12-10T18:50:08;977.4;;;-3.4;78.6
62980;BME280;49075;53.988;27.678;2022-12-10T18:54:33;977.4;;;-3.4;78.5
62980;BME280;49075;53.988;27.678;2022-12-10T19:00:09;977.5;;;-3.3;78.4
62980;BME280;49075;53.988;27.678;2022-12-10T19:04:57;977.6;;;-3.3;78.4
62980;BME280;49075;53.988;27.678;2022-12-10T19:09:25;977.7;;;-3.2;78.3
62980;BME280;49075;53.988;27.678;2022-12-10T19:15:05;977.7;;;-3.3;78.2
62980;BME280;49075;53.988;27.678;2022-12-10T19:20:05;977.7;;;-3.3;78.2
62980;BME280;49075;53.988;27.678;2022-12-10T19:24:33;977.7;;;-3.5;78.6
62980;BME280;49075;53.988;27.678;2022-12-10T19:30:05;977.9;;;-3.4;78.4
62980;BME280;49075;53.988;27.678;2022-12-10T19:34:33;977.9;;;-3.4;78.4
62980;BME280;49075;53.988;27.678;2022-12-10T19:39:45;977.9;;;-3.4;78.4
62980;BME280;49075;53.988;27.678;2022-12-10T19:44:58;977.9;;;-3.4;78.4
62980;BME280;49075;53.988;27.678;2022-12-10T19:50:08;977.9;;;-3.4;78.3
62980;BME280;49075;53.988;27.678;2022-12-10T19:55:07;978;;;-3.4;78.3
62980;BME280;49075;53.988;27.678;2022-12-10T20:00:10;978;;;-3.4;78.3
62980;BME280;49075;53.988;27.678;2022-12-10T20:04:59;978.1;;;-3.3;78
62980;BME280;49075;53.988;27.678;2022-12-10T20:09:43;978.1;;;-3.3;78
62980;BME280;49075;53.988;27.678;2022-12-10T20:14:25;978.1;;;-3.3;78
62980;BME280;49075;53.988;27.678;2022-12-10T20:19:25;978.1;;;-3.3;77.9
62980;BME280;49075;53.988;27.678;2022-12-10T20:24:35;978;;;-3.4;78
62980;BME280;49075;53.988;27.678;2022-12-10T20:30:07;978;;;-3.4;78
62980;BME280;49075;53.988;27.678;2022-12-10T20:34:25;978;;;-3.4;78
62980;BME280;49075;53.988;27.678;2022-12-10T20:39:55;978.1;;;-3.4;78
62980;BME280;49075;53.988;27.678;2022-12-10T20:44:57;978.1;;;-3.4;78.1
62980;BME280;49075;53.988;27.678;2022-12-10T20:49:55;978.1;;;-3.4;78.1
62980;BME280;49075;53.988;27.678;2022-12-10T20:55:07;978.1;;;-3.4;78.1
62980;BME280;49075;53.988;27.678;2022-12-10T20:59:59;978.1;;;-3.5;78.2
62980;BME280;49075;53.988;27.678;2022-12-10T21:05:05;978.2;;;-3.4;78.1
62980;BME280;49075;53.988;27.678;2022-12-10T21:09:43;978.2;;;-3.4;78.1
62980;BME280;49075;53.988;27.678;2022-12-10T21:14:35;978.1;;;-3.5;78.4
62980;BME280;49075;53.988;27.678;2022-12-10T21:19:43;978.1;;;-3.7;78.8
62980;BME280;49075;53.988;27.678;2022-12-10T21:24:47;977.8;;;-3.6;78.5
62980;BME280;49075;53.988;27.678;2022-12-10T21:30:09;977.8;;;-3.6;78.6
62980;BME280;49075;53.988;27.678;2022-12-10T21:34:33;978;;;-3.6;78.7
62980;BME280;49075;53.988;27.678;2022-12-10T21:39:55;978.2;;;-3.7;78.9
62980;BME280;49075;53.988;27.678;2022-12-10T21:44:57;978.4;;;-3.6;78.7
62980;BME280;49075;53.988;27.678;2022-12-10T21:49:35;978.4;;;-3.5;78.6
62980;BME280;49075;53.988;27.678;2022-12-10T21:54:33;978.4;;;-3.6;78.7
62980;BME280;49075;53.988;27.678;2022-12-10T21:59:55;978.2;;;-3.5;78.6
62980;BME280;49075;53.988;27.678;2022-12-10T22:05:03;978;;;-3.6;79
62980;BME280;49075;53.988;27.678;2022-12-10T22:09:41;978;;;-3.7;79.1
62980;BME280;49075;53.988;27.678;2022-12-10T22:14:33;978.1;;;-3.6;78.9
62980;BME280;49075;53.988;27.678;2022-12-10T22:19:51;978.1;;;-3.6;78.8
62980;BME280;49075;53.988;27.678;2022-12-10T22:24:45;978.1;;;-3.6;78.8
62980;BME280;49075;53.988;27.678;2022-12-10T22:30:05;978.2;;;-3.6;79
62980;BME280;49075;53.988;27.678;2022-12-10T22:34:43;978.3;;;-3.6;79
62980;BME280;49075;53.988;27.678;2022-12-10T22:39:43;978.4;;;-3.5;78.8
62980;BME280;49075;53.988;27.678;2022-12-10T22:44:53;978.5;;;-3.6;78.9
62980;BME280;49075;53.988;27.678;2022-12-10T22:49:53;978.5;;;-3.5;78.7
62980;BME280;49075;53.988;27.678;2022-12-10T22:54:25;978.6;;;-3.5;78.6
62980;BME280;49075;53.988;27.678;2022-12-10T22:59:57;978.7;;;-3.4;78.6
62980;BME280;49075;53.988;27.678;2022-12-10T23:05:05;978.6;;;-3.5;78.6
62980;BME280;49075;53.988;27.678;2022-12-10T23:09:41;978.4;;;-3.5;78.7
62980;BME280;49075;53.988;27.678;2022-12-10T23:14:35;978.4;;;-3.6;78.9
62980;BME280;49075;53.988;27.678;2022-12-10T23:19:43;978.4;;;-3.5;78.8
62980;BME280;49075;53.988;27.678;2022-12-10T23:24:43;978.4;;;-3.5;78.7
62980;BME280;49075;53.988;27.678;2022-12-10T23:30:06;978.4;;;-3.5;78.7
62980;BME280;49075;53.988;27.678;2022-12-10T23:34:33;978.4;;;-3.6;78.8
62980;BME280;49075;53.988;27.678;2022-12-10T23:39:53;978.4;;;-3.6;78.9
62980;BME280;49075;53.988;27.678;2022-12-10T23:44:55;978.4;;;-3.6;79
62980;BME280;49075;53.988;27.678;2022-12-10T23:49:53;978.4;;;-3.6;78.9
62980;BME280;49075;53.988;27.678;2022-12-10T23:54:33;978.4;;;-3.6;78.9
62980;BME280;49075;53.988;27.678;2022-12-10T23:59:55;978.3;;;-3.6;79.1
